Archival Weather

Salzburg

Salzburg, Austria (LOWS)

Report from: Friday, May 26, 2023 9:50 AM CEST
Current time: Monday, June 17, 2024 1:11 PM CEST

Current weather – Weather history – Daily summaries
Weather forecast

Temperature17.0°C (62.6°F)
Dew point13.0°C (55.4°F)
Winds 2 kts (1 m/s, 2.3 mph) Vrb
Winds variableWinds variable
Visibility6.2 mi. (10 km)
Clouds Scattered clouds 6,000 ft. (1,829 m)
Altimeter30.21 in.Hg (1023 mB)
Relative humidity77 %
Density altitude116 ft. (35 m)
Remarks Fully automated report
No significant changes expected in the next two hours
Flight conditions Visual Meteorological Conditions
Raw dataLOWS 260750Z AUTO VRB02KT 9999 SCT060 17/13 Q1023 NOSIG
An error has occurred. This application may no longer respond until reloaded. Reload 🗙